CheckWX is a tool to help pilots better visualize weather data.  It is not intended as a substitute for an official pre-flight weather briefing.

04:39:37 UTC

KCHS METAR
Charleston AFB / Intl Airport
Charleston, South Carolina, USA
Current

44 mins ago

KCHS 270356Z 00000KT 10SM SCT250 23/19 A3013 RMK AO2 SLP201 T02330189
Observed
Jun-27 @ 03:56 UTC
Visibility
10 SM
Flight Rules
VFR
Cloud Levels
  • Scattered at 25,000' AGL
Temperature
23°C / 73°F
Dewpoint
19°C / 66°F
Humidity
78%
Altimeter
30.13" Hg
Pressure
1020.32 hPa
Previous

2 hours ago

KCHS 270256Z 00000KT 10SM SCT250 24/19 A3012 RMK AO2 SLP197 T02440189 51007
Observed
Jun-27 @ 02:56 UTC
Visibility
10 SM
Flight Rules
VFR
Cloud Levels
  • Scattered at 25,000' AGL
Temperature
24°C / 75°F
Dewpoint
19°C / 66°F
Humidity
74%
Altimeter
30.12" Hg
Pressure
1020.02 hPa
Previous

3 hours ago

KCHS 270156Z 35004KT 10SM FEW100 BKN200 26/18 A3011 RMK AO2 SLP195 T02560183
Observed
Jun-27 @ 01:56 UTC
Wind
  • 350° at 4 KTS
Visibility
10 SM
Flight Rules
VFR
Cloud Levels
  • Few at 10,000' AGL
  • Broken at 20,000' AGL
Temperature
26°C / 79°F
Dewpoint
18°C / 64°F
Humidity
61%
Altimeter
30.11" Hg
Pressure
1019.62 hPa